sensor_id;sensor_type;location;lat;lon;timestamp;temperature;humidity
11639;DHT22;5875;35.940;126.892;2023-02-05T00:01:28;8.90;99.40
11639;DHT22;5875;35.940;126.892;2023-02-05T00:03:55;9.60;97.60
11639;DHT22;5875;35.940;126.892;2023-02-05T00:06:23;10.20;96.60
11639;DHT22;5875;35.940;126.892;2023-02-05T00:08:50;10.90;95.00
11639;DHT22;5875;35.940;126.892;2023-02-05T00:11:17;11.60;94.50
11639;DHT22;5875;35.940;126.892;2023-02-05T00:13:44;12.10;91.60
11639;DHT22;5875;35.940;126.892;2023-02-05T00:16:18;12.70;88.80
11639;DHT22;5875;35.940;126.892;2023-02-05T00:18:45;13.30;82.90
11639;DHT22;5875;35.940;126.892;2023-02-05T00:21:13;13.90;75.70
11639;DHT22;5875;35.940;126.892;2023-02-05T00:23:41;14.50;70.50
11639;DHT22;5875;35.940;126.892;2023-02-05T00:26:08;15.00;65.20
11639;DHT22;5875;35.940;126.892;2023-02-05T00:28:42;15.50;59.50
11639;DHT22;5875;35.940;126.892;2023-02-05T00:31:12;16.00;56.20
11639;DHT22;5875;35.940;126.892;2023-02-05T00:33:40;16.40;52.00
11639;DHT22;5875;35.940;126.892;2023-02-05T00:36:08;16.80;47.30
11639;DHT22;5875;35.940;126.892;2023-02-05T00:38:35;17.20;43.40
11639;DHT22;5875;35.940;126.892;2023-02-05T00:41:02;17.60;40.20
11639;DHT22;5875;35.940;126.892;2023-02-05T00:43:30;18.10;35.60
11639;DHT22;5875;35.940;126.892;2023-02-05T00:45:57;18.50;32.20
11639;DHT22;5875;35.940;126.892;2023-02-05T00:48:24;18.90;28.90
11639;DHT22;5875;35.940;126.892;2023-02-05T00:50:52;19.20;25.90
11639;DHT22;5875;35.940;126.892;2023-02-05T00:53:20;19.50;24.00
11639;DHT22;5875;35.940;126.892;2023-02-05T00:55:47;19.70;16.40
11639;DHT22;5875;35.940;126.892;2023-02-05T00:58:15;19.90;8.70
11639;DHT22;5875;35.940;126.892;2023-02-05T01:00:43;20.40;12.70
11639;DHT22;5875;35.940;126.892;2023-02-05T01:03:10;20.90;11.40
11639;DHT22;5875;35.940;126.892;2023-02-05T01:05:39;21.20;2.50
11639;DHT22;5875;35.940;126.892;2023-02-05T01:08:08;21.50;9.10
11639;DHT22;5875;35.940;126.892;2023-02-05T01:10:35;21.50;1.00
11639;DHT22;5875;35.940;126.892;2023-02-05T01:13:04;21.40;1.00
11639;DHT22;5875;35.940;126.892;2023-02-05T01:15:31;21.80;2.40
11639;DHT22;5875;35.940;126.892;2023-02-05T01:17:58;20.70;1.00
11639;DHT22;5875;35.940;126.892;2023-02-05T01:20:26;20.80;1.00
11639;DHT22;5875;35.940;126.892;2023-02-05T01:22:54;21.20;1.00
11639;DHT22;5875;35.940;126.892;2023-02-05T01:25:22;21.70;1.00
11639;DHT22;5875;35.940;126.892;2023-02-05T01:27:49;22.00;1.00
11639;DHT22;5875;35.940;126.892;2023-02-05T01:30:16;22.50;1.00
11639;DHT22;5875;35.940;126.892;2023-02-05T01:32:44;22.50;1.00
11639;DHT22;5875;35.940;126.892;2023-02-05T01:35:11;22.90;1.00
11639;DHT22;5875;35.940;126.892;2023-02-05T01:37:38;23.40;1.00
11639;DHT22;5875;35.940;126.892;2023-02-05T01:40:05;24.00;1.00
11639;DHT22;5875;35.940;126.892;2023-02-05T01:42:33;23.40;1.00
11639;DHT22;5875;35.940;126.892;2023-02-05T01:50:25;24.90;1.00
11639;DHT22;5875;35.940;126.892;2023-02-05T01:52:54;25.10;1.00
11639;DHT22;5875;35.940;126.892;2023-02-05T01:55:24;25.50;1.00
11639;DHT22;5875;35.940;126.892;2023-02-05T01:57:52;25.70;1.00
11639;DHT22;5875;35.940;126.892;2023-02-05T02:00:20;25.80;1.00
11639;DHT22;5875;35.940;126.892;2023-02-05T02:02:48;26.00;1.00
11639;DHT22;5875;35.940;126.892;2023-02-05T02:05:17;26.10;1.00
11639;DHT22;5875;35.940;126.892;2023-02-05T02:07:44;26.30;1.00
11639;DHT22;5875;35.940;126.892;2023-02-05T02:10:14;26.40;1.00
11639;DHT22;5875;35.940;126.892;2023-02-05T02:12:43;26.20;1.00
11639;DHT22;5875;35.940;126.892;2023-02-05T02:15:22;26.20;1.00
11639;DHT22;5875;35.940;126.892;2023-02-05T02:18:01;25.40;1.00
11639;DHT22;5875;35.940;126.892;2023-02-05T02:21:11;24.70;1.00
11639;DHT22;5875;35.940;126.892;2023-02-05T02:29:18;21.60;1.00
11639;DHT22;5875;35.940;126.892;2023-02-05T02:52:35;19.80;1.00
11639;DHT22;5875;35.940;126.892;2023-02-05T02:55:08;15.80;1.00
11639;DHT22;5875;35.940;126.892;2023-02-05T02:57:40;16.70;1.00
11639;DHT22;5875;35.940;126.892;2023-02-05T03:00:26;15.20;1.00
11639;DHT22;5875;35.940;126.892;2023-02-05T03:02:59;17.60;1.00
11639;DHT22;5875;35.940;126.892;2023-02-05T03:05:28;16.90;1.00
11639;DHT22;5875;35.940;126.892;2023-02-05T03:21:02;17.10;1.00
11639;DHT22;5875;35.940;126.892;2023-02-05T03:23:30;21.30;1.00
11639;DHT22;5875;35.940;126.892;2023-02-05T03:25:57;21.40;1.00
11639;DHT22;5875;35.940;126.892;2023-02-05T03:28:24;21.90;1.00
11639;DHT22;5875;35.940;126.892;2023-02-05T03:31:08;22.00;1.00
11639;DHT22;5875;35.940;126.892;2023-02-05T03:33:57;22.30;1.00
11639;DHT22;5875;35.940;126.892;2023-02-05T03:39:10;22.20;1.00
11639;DHT22;5875;35.940;126.892;2023-02-05T03:41:50;22.10;1.00
11639;DHT22;5875;35.940;126.892;2023-02-05T03:44:36;22.20;1.00
11639;DHT22;5875;35.940;126.892;2023-02-05T03:52:49;22.30;1.00
11639;DHT22;5875;35.940;126.892;2023-02-05T03:55:27;22.20;1.00
11639;DHT22;5875;35.940;126.892;2023-02-05T03:58:12;22.20;1.00
11639;DHT22;5875;35.940;126.892;2023-02-05T04:00:41;22.20;1.60
11639;DHT22;5875;35.940;126.892;2023-02-05T04:03:08;22.30;5.90
11639;DHT22;5875;35.940;126.892;2023-02-05T04:05:36;22.00;1.00
11639;DHT22;5875;35.940;126.892;2023-02-05T04:08:03;21.70;1.00
11639;DHT22;5875;35.940;126.892;2023-02-05T04:10:30;21.70;1.00
11639;DHT22;5875;35.940;126.892;2023-02-05T04:12:58;21.00;1.00
11639;DHT22;5875;35.940;126.892;2023-02-05T04:15:28;20.90;1.00
11639;DHT22;5875;35.940;126.892;2023-02-05T04:17:56;21.30;2.40
11639;DHT22;5875;35.940;126.892;2023-02-05T04:20:26;21.50;1.00
11639;DHT22;5875;35.940;126.892;2023-02-05T04:22:53;21.60;1.00
11639;DHT22;5875;35.940;126.892;2023-02-05T04:25:20;21.60;1.00
11639;DHT22;5875;35.940;126.892;2023-02-05T04:27:47;21.70;1.00
11639;DHT22;5875;35.940;126.892;2023-02-05T04:30:15;21.60;1.00
11639;DHT22;5875;35.940;126.892;2023-02-05T04:32:42;21.60;1.00
11639;DHT22;5875;35.940;126.892;2023-02-05T04:35:09;21.70;1.00
11639;DHT22;5875;35.940;126.892;2023-02-05T04:37:36;21.60;1.00
11639;DHT22;5875;35.940;126.892;2023-02-05T04:40:04;21.70;1.00
11639;DHT22;5875;35.940;126.892;2023-02-05T04:42:31;21.80;1.00
11639;DHT22;5875;35.940;126.892;2023-02-05T04:44:59;21.70;1.00
11639;DHT22;5875;35.940;126.892;2023-02-05T04:47:26;21.70;1.00
11639;DHT22;5875;35.940;126.892;2023-02-05T04:49:53;21.60;1.00
11639;DHT22;5875;35.940;126.892;2023-02-05T04:52:20;21.60;1.00
11639;DHT22;5875;35.940;126.892;2023-02-05T04:54:47;21.70;1.00
11639;DHT22;5875;35.940;126.892;2023-02-05T04:57:17;21.60;1.00
11639;DHT22;5875;35.940;126.892;2023-02-05T04:59:44;21.50;1.00
11639;DHT22;5875;35.940;126.892;2023-02-05T05:02:11;21.50;1.00
11639;DHT22;5875;35.940;126.892;2023-02-05T05:04:38;21.50;1.00
11639;DHT22;5875;35.940;126.892;2023-02-05T05:07:06;21.40;1.00
11639;DHT22;5875;35.940;126.892;2023-02-05T05:09:34;21.20;1.00
11639;DHT22;5875;35.940;126.892;2023-02-05T05:12:01;20.80;1.00
11639;DHT22;5875;35.940;126.892;2023-02-05T06:31:10;19.90;1.00
11639;DHT22;5875;35.940;126.892;2023-02-05T06:33:37;16.50;1.00
11639;DHT22;5875;35.940;126.892;2023-02-05T06:36:04;16.00;1.00
11639;DHT22;5875;35.940;126.892;2023-02-05T06:38:32;15.90;14.20
11639;DHT22;5875;35.940;126.892;2023-02-05T06:40:59;16.40;74.90
11639;DHT22;5875;35.940;126.892;2023-02-05T06:43:26;17.40;99.90
11639;DHT22;5875;35.940;126.892;2023-02-05T06:45:54;17.70;99.90
11639;DHT22;5875;35.940;126.892;2023-02-05T06:48:21;18.40;99.90
11639;DHT22;5875;35.940;126.892;2023-02-05T07:49:43;18.80;99.90
11639;DHT22;5875;35.940;126.892;2023-02-05T07:52:10;18.50;69.50
11639;DHT22;5875;35.940;126.892;2023-02-05T07:54:37;18.40;67.10
11639;DHT22;5875;35.940;126.892;2023-02-05T07:57:05;18.30;66.80
11639;DHT22;5875;35.940;126.892;2023-02-05T07:59:32;18.20;66.10
11639;DHT22;5875;35.940;126.892;2023-02-05T08:01:59;18.10;64.20
11639;DHT22;5875;35.940;126.892;2023-02-05T08:04:26;17.90;66.20
11639;DHT22;5875;35.940;126.892;2023-02-05T08:06:54;17.80;64.20
11639;DHT22;5875;35.940;126.892;2023-02-05T08:09:21;17.70;65.30
11639;DHT22;5875;35.940;126.892;2023-02-05T08:11:48;17.50;65.20
11639;DHT22;5875;35.940;126.892;2023-02-05T08:14:15;17.40;65.70
11639;DHT22;5875;35.940;126.892;2023-02-05T08:16:42;17.20;65.60
11639;DHT22;5875;35.940;126.892;2023-02-05T08:19:14;17.10;65.10
11639;DHT22;5875;35.940;126.892;2023-02-05T08:21:42;17.00;63.40
11639;DHT22;5875;35.940;126.892;2023-02-05T08:24:09;16.80;64.40
11639;DHT22;5875;35.940;126.892;2023-02-05T08:26:36;16.70;64.00
11639;DHT22;5875;35.940;126.892;2023-02-05T08:29:05;16.50;64.60
11639;DHT22;5875;35.940;126.892;2023-02-05T08:31:34;16.30;68.50
11639;DHT22;5875;35.940;126.892;2023-02-05T08:34:01;16.20;68.80
11639;DHT22;5875;35.940;126.892;2023-02-05T08:36:32;16.20;95.30
11639;DHT22;5875;35.940;126.892;2023-02-05T08:38:59;16.20;99.90
11639;DHT22;5875;35.940;126.892;2023-02-05T08:41:27;16.00;99.90
11639;DHT22;5875;35.940;126.892;2023-02-05T08:43:54;15.90;99.80
11639;DHT22;5875;35.940;126.892;2023-02-05T08:46:23;15.70;97.70
11639;DHT22;5875;35.940;126.892;2023-02-05T08:48:51;15.50;92.10
11639;DHT22;5875;35.940;126.892;2023-02-05T08:51:20;15.40;99.00
11639;DHT22;5875;35.940;126.892;2023-02-05T08:53:49;15.20;98.70
11639;DHT22;5875;35.940;126.892;2023-02-05T08:56:16;15.00;97.50
11639;DHT22;5875;35.940;126.892;2023-02-05T08:58:43;14.90;96.50
11639;DHT22;5875;35.940;126.892;2023-02-05T09:01:14;14.70;95.00
11639;DHT22;5875;35.940;126.892;2023-02-05T09:03:42;14.60;94.10
11639;DHT22;5875;35.940;126.892;2023-02-05T09:06:13;14.40;93.10
11639;DHT22;5875;35.940;126.892;2023-02-05T09:08:40;14.30;93.60
11639;DHT22;5875;35.940;126.892;2023-02-05T09:11:08;14.10;94.60
11639;DHT22;5875;35.940;126.892;2023-02-05T09:13:36;13.90;91.60
11639;DHT22;5875;35.940;126.892;2023-02-05T09:16:03;13.80;91.70
11639;DHT22;5875;35.940;126.892;2023-02-05T09:18:31;13.60;92.30
11639;DHT22;5875;35.940;126.892;2023-02-05T09:20:58;13.50;92.20
11639;DHT22;5875;35.940;126.892;2023-02-05T09:23:25;13.40;92.10
11639;DHT22;5875;35.940;126.892;2023-02-05T09:25:52;13.20;92.30
11639;DHT22;5875;35.940;126.892;2023-02-05T09:28:19;13.10;92.90
11639;DHT22;5875;35.940;126.892;2023-02-05T09:30:47;13.10;91.80
11639;DHT22;5875;35.940;126.892;2023-02-05T09:33:14;12.90;90.80
11639;DHT22;5875;35.940;126.892;2023-02-05T09:35:41;12.80;90.20
11639;DHT22;5875;35.940;126.892;2023-02-05T09:38:12;12.70;90.70
11639;DHT22;5875;35.940;126.892;2023-02-05T09:43:28;12.50;91.20
11639;DHT22;5875;35.940;126.892;2023-02-05T09:52:06;12.20;87.30
11639;DHT22;5875;35.940;126.892;2023-02-05T09:54:40;12.10;90.60
11639;DHT22;5875;35.940;126.892;2023-02-05T09:57:15;11.90;88.20
11639;DHT22;5875;35.940;126.892;2023-02-05T09:59:45;11.80;86.30
11639;DHT22;5875;35.940;126.892;2023-02-05T10:04:54;11.60;90.10
11639;DHT22;5875;35.940;126.892;2023-02-05T10:26:55;10.80;92.40
11639;DHT22;5875;35.940;126.892;2023-02-05T10:34:57;10.30;27.00
11639;DHT22;5875;35.940;126.892;2023-02-05T10:37:37;9.30;22.80
11639;DHT22;5875;35.940;126.892;2023-02-05T10:40:14;9.60;80.40
11639;DHT22;5875;35.940;126.892;2023-02-05T10:45:22;9.80;98.30
11639;DHT22;5875;35.940;126.892;2023-02-05T10:51:05;9.80;97.80
11639;DHT22;5875;35.940;126.892;2023-02-05T10:53:34;9.80;97.60
11639;DHT22;5875;35.940;126.892;2023-02-05T10:56:02;9.80;94.20
11639;DHT22;5875;35.940;126.892;2023-02-05T10:58:42;9.70;95.00
11639;DHT22;5875;35.940;126.892;2023-02-05T11:01:17;9.70;97.10
11639;DHT22;5875;35.940;126.892;2023-02-05T11:03:58;9.70;97.20
11639;DHT22;5875;35.940;126.892;2023-02-05T11:06:30;9.60;97.50
11639;DHT22;5875;35.940;126.892;2023-02-05T11:08:58;9.50;97.80
11639;DHT22;5875;35.940;126.892;2023-02-05T11:11:28;9.50;97.10
11639;DHT22;5875;35.940;126.892;2023-02-05T11:14:01;9.40;96.50
11639;DHT22;5875;35.940;126.892;2023-02-05T11:16:42;9.30;97.30
11639;DHT22;5875;35.940;126.892;2023-02-05T11:19:22;9.30;96.70
11639;DHT22;5875;35.940;126.892;2023-02-05T11:21:55;9.30;96.70
11639;DHT22;5875;35.940;126.892;2023-02-05T11:24:28;9.20;98.30
11639;DHT22;5875;35.940;126.892;2023-02-05T11:27:32;9.20;98.60
11639;DHT22;5875;35.940;126.892;2023-02-05T11:30:27;9.10;98.00
11639;DHT22;5875;35.940;126.892;2023-02-05T11:32:57;9.10;98.00
11639;DHT22;5875;35.940;126.892;2023-02-05T11:35:29;9.10;97.30
11639;DHT22;5875;35.940;126.892;2023-02-05T11:38:07;9.10;95.20
11639;DHT22;5875;35.940;126.892;2023-02-05T11:40:35;9.00;95.90
11639;DHT22;5875;35.940;126.892;2023-02-05T11:43:27;9.00;98.70
11639;DHT22;5875;35.940;126.892;2023-02-05T11:45:53;9.00;99.90
11639;DHT22;5875;35.940;126.892;2023-02-05T11:48:39;8.80;51.00
11639;DHT22;5875;35.940;126.892;2023-02-05T11:51:10;8.70;76.70
11639;DHT22;5875;35.940;126.892;2023-02-05T11:53:52;8.70;97.00
11639;DHT22;5875;35.940;126.892;2023-02-05T11:56:22;8.60;99.40
11639;DHT22;5875;35.940;126.892;2023-02-05T11:58:59;8.60;99.90
11639;DHT22;5875;35.940;126.892;2023-02-05T12:01:32;8.40;99.90
11639;DHT22;5875;35.940;126.892;2023-02-05T12:04:02;8.70;99.90
11639;DHT22;5875;35.940;126.892;2023-02-05T12:06:56;8.70;84.70
11639;DHT22;5875;35.940;126.892;2023-02-05T12:09:25;8.40;97.80
11639;DHT22;5875;35.940;126.892;2023-02-05T12:12:06;8.50;99.80
11639;DHT22;5875;35.940;126.892;2023-02-05T12:15:09;8.30;99.90
11639;DHT22;5875;35.940;126.892;2023-02-05T12:17:58;8.20;69.30
11639;DHT22;5875;35.940;126.892;2023-02-05T12:21:05;8.10;98.00
11639;DHT22;5875;35.940;126.892;2023-02-05T12:24:03;8.00;99.90
11639;DHT22;5875;35.940;126.892;2023-02-05T12:26:38;7.40;44.00
11639;DHT22;5875;35.940;126.892;2023-02-05T12:32:25;6.40;45.60
11639;DHT22;5875;35.940;126.892;2023-02-05T12:40:41;6.20;99.90
11639;DHT22;5875;35.940;126.892;2023-02-05T12:43:26;6.30;74.20
11639;DHT22;5875;35.940;126.892;2023-02-05T12:45:59;6.40;99.90
11639;DHT22;5875;35.940;126.892;2023-02-05T12:51:23;6.30;79.60
11639;DHT22;5875;35.940;126.892;2023-02-05T12:56:34;6.50;99.90
11639;DHT22;5875;35.940;126.892;2023-02-05T12:59:16;6.50;99.90
11639;DHT22;5875;35.940;126.892;2023-02-05T13:07:27;6.80;99.90
11639;DHT22;5875;35.940;126.892;2023-02-05T13:10:00;6.80;99.90
11639;DHT22;5875;35.940;126.892;2023-02-05T13:12:34;6.80;99.90
11639;DHT22;5875;35.940;126.892;2023-02-05T13:15:19;6.80;99.90
11639;DHT22;5875;35.940;126.892;2023-02-05T13:20:48;7.00;99.90
11639;DHT22;5875;35.940;126.892;2023-02-05T13:23:35;7.00;99.90
11639;DHT22;5875;35.940;126.892;2023-02-05T13:26:29;7.00;99.90
11639;DHT22;5875;35.940;126.892;2023-02-05T13:29:17;7.00;99.90
11639;DHT22;5875;35.940;126.892;2023-02-05T13:32:12;7.00;99.90
11639;DHT22;5875;35.940;126.892;2023-02-05T13:34:41;7.00;99.90
11639;DHT22;5875;35.940;126.892;2023-02-05T13:40:17;7.00;99.90
11639;DHT22;5875;35.940;126.892;2023-02-05T13:43:04;6.90;99.90
11639;DHT22;5875;35.940;126.892;2023-02-05T14:00:24;7.00;99.90
11639;DHT22;5875;35.940;126.892;2023-02-05T14:02:54;6.90;99.90
11639;DHT22;5875;35.940;126.892;2023-02-05T14:05:31;6.90;99.90
11639;DHT22;5875;35.940;126.892;2023-02-05T14:07:59;6.90;99.90
11639;DHT22;5875;35.940;126.892;2023-02-05T14:10:34;6.90;99.90
11639;DHT22;5875;35.940;126.892;2023-02-05T14:13:21;6.90;99.90
11639;DHT22;5875;35.940;126.892;2023-02-05T14:15:57;6.90;99.90
11639;DHT22;5875;35.940;126.892;2023-02-05T14:33:40;6.60;99.90
11639;DHT22;5875;35.940;126.892;2023-02-05T14:39:01;6.50;99.90
11639;DHT22;5875;35.940;126.892;2023-02-05T14:41:50;6.60;99.90
11639;DHT22;5875;35.940;126.892;2023-02-05T14:44:23;6.50;99.90
11639;DHT22;5875;35.940;126.892;2023-02-05T14:49:29;6.40;99.90
11639;DHT22;5875;35.940;126.892;2023-02-05T14:52:26;6.40;99.90
11639;DHT22;5875;35.940;126.892;2023-02-05T15:00:34;6.40;99.90
11639;DHT22;5875;35.940;126.892;2023-02-05T15:13:35;6.10;99.90
11639;DHT22;5875;35.940;126.892;2023-02-05T15:24:12;6.00;99.90
11639;DHT22;5875;35.940;126.892;2023-02-05T15:29:31;5.90;99.90
11639;DHT22;5875;35.940;126.892;2023-02-05T15:32:02;5.90;99.90
11639;DHT22;5875;35.940;126.892;2023-02-05T15:35:01;5.80;99.90
11639;DHT22;5875;35.940;126.892;2023-02-05T15:38:01;5.80;99.90
11639;DHT22;5875;35.940;126.892;2023-02-05T15:40:30;5.80;99.90
11639;DHT22;5875;35.940;126.892;2023-02-05T15:43:00;5.80;92.70
11639;DHT22;5875;35.940;126.892;2023-02-05T15:45:35;5.70;80.60
11639;DHT22;5875;35.940;126.892;2023-02-05T15:56:26;5.50;99.90
11639;DHT22;5875;35.940;126.892;2023-02-05T16:02:12;5.60;99.90
11639;DHT22;5875;35.940;126.892;2023-02-05T16:04:41;5.70;99.90
11639;DHT22;5875;35.940;126.892;2023-02-05T16:07:20;5.70;99.90
11639;DHT22;5875;35.940;126.892;2023-02-05T16:09:50;5.70;99.90
11639;DHT22;5875;35.940;126.892;2023-02-05T16:12:18;5.70;99.90
11639;DHT22;5875;35.940;126.892;2023-02-05T16:14:45;5.60;99.90
11639;DHT22;5875;35.940;126.892;2023-02-05T16:17:37;5.60;99.90
11639;DHT22;5875;35.940;126.892;2023-02-05T16:20:15;5.50;99.90
11639;DHT22;5875;35.940;126.892;2023-02-05T16:22:46;5.50;99.90
11639;DHT22;5875;35.940;126.892;2023-02-05T16:25:45;5.50;99.90
11639;DHT22;5875;35.940;126.892;2023-02-05T16:28:20;5.40;99.90
11639;DHT22;5875;35.940;126.892;2023-02-05T16:30:51;5.50;99.90
11639;DHT22;5875;35.940;126.892;2023-02-05T16:33:26;5.40;99.90
11639;DHT22;5875;35.940;126.892;2023-02-05T16:35:58;5.40;99.90
11639;DHT22;5875;35.940;126.892;2023-02-05T16:38:26;5.40;99.90
11639;DHT22;5875;35.940;126.892;2023-02-05T16:40:58;5.40;99.90
11639;DHT22;5875;35.940;126.892;2023-02-05T16:43:35;5.30;99.90
11639;DHT22;5875;35.940;126.892;2023-02-05T16:48:57;5.40;99.90
11639;DHT22;5875;35.940;126.892;2023-02-05T16:51:34;5.40;99.90
11639;DHT22;5875;35.940;126.892;2023-02-05T16:57:02;5.30;99.90
11639;DHT22;5875;35.940;126.892;2023-02-05T16:59:52;5.30;99.90
11639;DHT22;5875;35.940;126.892;2023-02-05T17:02:25;5.20;99.90
11639;DHT22;5875;35.940;126.892;2023-02-05T17:04:54;5.20;99.90
11639;DHT22;5875;35.940;126.892;2023-02-05T17:07:23;5.20;99.90
11639;DHT22;5875;35.940;126.892;2023-02-05T17:09:51;5.20;99.90
11639;DHT22;5875;35.940;126.892;2023-02-05T17:18:01;5.10;99.90
11639;DHT22;5875;35.940;126.892;2023-02-05T17:20:42;5.10;99.90
11639;DHT22;5875;35.940;126.892;2023-02-05T17:23:12;5.10;99.90
11639;DHT22;5875;35.940;126.892;2023-02-05T17:28:25;5.00;99.90
11639;DHT22;5875;35.940;126.892;2023-02-05T17:30:55;5.00;99.90
11639;DHT22;5875;35.940;126.892;2023-02-05T17:33:28;5.00;99.90
11639;DHT22;5875;35.940;126.892;2023-02-05T17:35:55;4.90;99.90
11639;DHT22;5875;35.940;126.892;2023-02-05T17:38:22;4.90;99.90
11639;DHT22;5875;35.940;126.892;2023-02-05T17:40:49;4.90;99.90
11639;DHT22;5875;35.940;126.892;2023-02-05T17:43:36;4.90;99.90
11639;DHT22;5875;35.940;126.892;2023-02-05T17:46:13;4.90;99.90
11639;DHT22;5875;35.940;126.892;2023-02-05T17:48:40;4.80;99.90
11639;DHT22;5875;35.940;126.892;2023-02-05T17:51:18;4.90;99.90
11639;DHT22;5875;35.940;126.892;2023-02-05T17:53:47;4.80;99.90
11639;DHT22;5875;35.940;126.892;2023-02-05T17:56:14;4.80;99.90
11639;DHT22;5875;35.940;126.892;2023-02-05T17:58:49;4.70;99.90
11639;DHT22;5875;35.940;126.892;2023-02-05T18:01:18;4.70;99.90
11639;DHT22;5875;35.940;126.892;2023-02-05T18:03:45;4.70;99.90
11639;DHT22;5875;35.940;126.892;2023-02-05T18:06:14;4.70;99.90
11639;DHT22;5875;35.940;126.892;2023-02-05T18:08:42;4.70;99.90
11639;DHT22;5875;35.940;126.892;2023-02-05T18:11:10;4.60;99.90
11639;DHT22;5875;35.940;126.892;2023-02-05T18:13:37;4.60;99.90
11639;DHT22;5875;35.940;126.892;2023-02-05T18:16:04;4.60;99.90
11639;DHT22;5875;35.940;126.892;2023-02-05T18:18:34;4.50;99.90
11639;DHT22;5875;35.940;126.892;2023-02-05T18:21:01;4.50;99.90
11639;DHT22;5875;35.940;126.892;2023-02-05T18:23:28;4.60;99.90
11639;DHT22;5875;35.940;126.892;2023-02-05T18:25:57;4.50;99.90
11639;DHT22;5875;35.940;126.892;2023-02-05T18:28:25;4.50;99.90
11639;DHT22;5875;35.940;126.892;2023-02-05T18:30:57;4.50;99.90
11639;DHT22;5875;35.940;126.892;2023-02-05T18:33:24;4.50;99.90
11639;DHT22;5875;35.940;126.892;2023-02-05T18:35:52;4.50;99.90
11639;DHT22;5875;35.940;126.892;2023-02-05T18:38:19;4.50;99.90
11639;DHT22;5875;35.940;126.892;2023-02-05T18:40:47;4.50;99.90
11639;DHT22;5875;35.940;126.892;2023-02-05T18:43:14;4.50;99.90
11639;DHT22;5875;35.940;126.892;2023-02-05T18:45:41;4.40;99.90
11639;DHT22;5875;35.940;126.892;2023-02-05T18:48:08;4.40;99.90
11639;DHT22;5875;35.940;126.892;2023-02-05T18:50:35;4.40;99.90
11639;DHT22;5875;35.940;126.892;2023-02-05T18:53:02;4.40;99.90
11639;DHT22;5875;35.940;126.892;2023-02-05T18:55:30;4.40;99.90
11639;DHT22;5875;35.940;126.892;2023-02-05T18:58:01;4.30;99.90
11639;DHT22;5875;35.940;126.892;2023-02-05T19:00:29;4.40;99.90
11639;DHT22;5875;35.940;126.892;2023-02-05T19:02:57;4.10;75.70
11639;DHT22;5875;35.940;126.892;2023-02-05T19:05:24;4.00;70.90
11639;DHT22;5875;35.940;126.892;2023-02-05T19:07:52;4.10;97.20
11639;DHT22;5875;35.940;126.892;2023-02-05T19:10:19;4.10;99.90
11639;DHT22;5875;35.940;126.892;2023-02-05T19:12:46;3.90;99.90
11639;DHT22;5875;35.940;126.892;2023-02-05T19:15:15;3.90;99.90
11639;DHT22;5875;35.940;126.892;2023-02-05T19:17:43;3.90;99.90
11639;DHT22;5875;35.940;126.892;2023-02-05T19:20:10;3.90;99.90
11639;DHT22;5875;35.940;126.892;2023-02-05T19:22:37;3.90;99.90
11639;DHT22;5875;35.940;126.892;2023-02-05T19:25:04;3.90;99.90
11639;DHT22;5875;35.940;126.892;2023-02-05T19:27:32;4.00;99.90
11639;DHT22;5875;35.940;126.892;2023-02-05T19:29:59;4.00;99.90
11639;DHT22;5875;35.940;126.892;2023-02-05T19:32:26;4.00;99.90
11639;DHT22;5875;35.940;126.892;2023-02-05T19:34:53;3.90;99.90
11639;DHT22;5875;35.940;126.892;2023-02-05T19:37:20;4.00;99.90
11639;DHT22;5875;35.940;126.892;2023-02-05T19:39:47;4.00;99.90
11639;DHT22;5875;35.940;126.892;2023-02-05T19:42:15;4.00;99.90
11639;DHT22;5875;35.940;126.892;2023-02-05T19:44:42;4.00;99.90
11639;DHT22;5875;35.940;126.892;2023-02-05T19:47:09;4.00;99.90
11639;DHT22;5875;35.940;126.892;2023-02-05T19:49:38;3.90;99.90
11639;DHT22;5875;35.940;126.892;2023-02-05T19:52:05;3.90;99.90
11639;DHT22;5875;35.940;126.892;2023-02-05T19:54:34;3.90;99.90
11639;DHT22;5875;35.940;126.892;2023-02-05T19:57:01;3.80;99.90
11639;DHT22;5875;35.940;126.892;2023-02-05T19:59:32;3.80;99.90
11639;DHT22;5875;35.940;126.892;2023-02-05T20:01:59;3.90;99.90
11639;DHT22;5875;35.940;126.892;2023-02-05T20:04:26;3.80;99.90
11639;DHT22;5875;35.940;126.892;2023-02-05T20:06:57;3.90;99.90
11639;DHT22;5875;35.940;126.892;2023-02-05T20:09:26;3.90;99.90
11639;DHT22;5875;35.940;126.892;2023-02-05T20:11:53;3.90;99.90
11639;DHT22;5875;35.940;126.892;2023-02-05T20:14:21;3.80;99.90
11639;DHT22;5875;35.940;126.892;2023-02-05T20:16:49;3.80;99.90
11639;DHT22;5875;35.940;126.892;2023-02-05T20:19:17;3.80;99.90
11639;DHT22;5875;35.940;126.892;2023-02-05T20:21:46;3.70;99.90
11639;DHT22;5875;35.940;126.892;2023-02-05T20:24:14;3.70;99.90
11639;DHT22;5875;35.940;126.892;2023-02-05T20:26:42;3.70;99.90
11639;DHT22;5875;35.940;126.892;2023-02-05T20:29:10;3.70;99.90
11639;DHT22;5875;35.940;126.892;2023-02-05T20:31:55;3.70;99.90
11639;DHT22;5875;35.940;126.892;2023-02-05T20:34:28;3.70;99.90
11639;DHT22;5875;35.940;126.892;2023-02-05T20:37:00;3.70;99.90
11639;DHT22;5875;35.940;126.892;2023-02-05T20:39:30;3.60;99.90
11639;DHT22;5875;35.940;126.892;2023-02-05T20:42:00;3.60;99.90
11639;DHT22;5875;35.940;126.892;2023-02-05T20:44:31;3.70;99.90
11639;DHT22;5875;35.940;126.892;2023-02-05T20:46:59;3.70;99.90
11639;DHT22;5875;35.940;126.892;2023-02-05T20:49:26;3.70;99.90
11639;DHT22;5875;35.940;126.892;2023-02-05T20:51:53;3.60;99.90
11639;DHT22;5875;35.940;126.892;2023-02-05T20:54:21;3.60;99.90
11639;DHT22;5875;35.940;126.892;2023-02-05T20:56:52;3.50;99.90
11639;DHT22;5875;35.940;126.892;2023-02-05T20:59:31;3.50;99.90
11639;DHT22;5875;35.940;126.892;2023-02-05T21:01:59;3.50;99.90
11639;DHT22;5875;35.940;126.892;2023-02-05T21:04:26;3.40;99.90
11639;DHT22;5875;35.940;126.892;2023-02-05T21:06:53;3.40;99.90
11639;DHT22;5875;35.940;126.892;2023-02-05T21:09:21;3.40;99.90
11639;DHT22;5875;35.940;126.892;2023-02-05T21:11:48;3.40;99.90
11639;DHT22;5875;35.940;126.892;2023-02-05T21:14:16;3.40;99.90
11639;DHT22;5875;35.940;126.892;2023-02-05T21:16:43;3.50;99.90
11639;DHT22;5875;35.940;126.892;2023-02-05T21:19:10;3.40;99.90
11639;DHT22;5875;35.940;126.892;2023-02-05T21:21:38;3.30;99.90
11639;DHT22;5875;35.940;126.892;2023-02-05T21:24:07;3.40;99.90
11639;DHT22;5875;35.940;126.892;2023-02-05T21:26:37;3.40;99.90
11639;DHT22;5875;35.940;126.892;2023-02-05T21:29:07;3.40;99.90
11639;DHT22;5875;35.940;126.892;2023-02-05T21:31:39;3.40;99.90
11639;DHT22;5875;35.940;126.892;2023-02-05T21:34:28;3.40;99.90
11639;DHT22;5875;35.940;126.892;2023-02-05T21:36:57;3.40;99.90
11639;DHT22;5875;35.940;126.892;2023-02-05T21:39:24;3.40;99.90